createdAt,value
2022-08-23T00:01:36.838Z,20.40
2022-08-23T00:04:08.261Z,20.30
2022-08-23T00:06:36.050Z,20.30
2022-08-23T00:09:03.714Z,20.30
2022-08-23T00:11:44.528Z,20.30
2022-08-23T00:14:26.053Z,20.30
2022-08-23T00:16:53.838Z,20.30
2022-08-23T00:19:22.941Z,20.20
2022-08-23T00:21:52.330Z,20.20
2022-08-23T00:24:20.028Z,20.20
2022-08-23T00:27:07.828Z,20.20
2022-08-23T00:29:34.707Z,20.20
2022-08-23T00:32:02.434Z,20.20
2022-08-23T00:34:29.591Z,20.20
2022-08-23T00:36:56.962Z,20.20
2022-08-23T00:39:23.963Z,20.20
2022-08-23T00:41:51.503Z,20.20
2022-08-23T00:44:46.621Z,20.10
2022-08-23T00:47:33.732Z,20.10
2022-08-23T00:50:24.208Z,20.20
2022-08-23T00:53:12.476Z,20.20
2022-08-23T00:55:41.813Z,20.20
2022-08-23T00:58:09.837Z,20.20
2022-08-23T01:00:36.821Z,20.20
2022-08-23T01:03:07.852Z,20.20
2022-08-23T01:06:08.131Z,20.20
2022-08-23T01:08:37.159Z,20.10
2022-08-23T01:11:27.331Z,20.10
2022-08-23T01:14:07.442Z,20.10
2022-08-23T01:16:54.234Z,20.10
2022-08-23T01:19:41.686Z,20.00
2022-08-23T01:22:40.864Z,20.00
2022-08-23T01:25:12.475Z,20.00
2022-08-23T01:27:40.391Z,19.90
2022-08-23T01:30:11.900Z,20.00
2022-08-23T01:32:48.070Z,20.00
2022-08-23T01:35:16.973Z,20.00
2022-08-23T01:37:44.781Z,19.90
2022-08-23T01:40:12.700Z,19.90
2022-08-23T01:42:41.937Z,19.90
2022-08-23T01:45:14.063Z,19.90
2022-08-23T01:47:41.702Z,19.70
2022-08-23T01:50:11.555Z,19.70
2022-08-23T01:52:47.041Z,19.80
2022-08-23T01:55:15.143Z,19.80
2022-08-23T01:57:45.487Z,19.80
2022-08-23T02:00:17.891Z,19.80
2022-08-23T02:02:47.341Z,19.70
2022-08-23T02:05:14.746Z,19.70
2022-08-23T02:07:46.877Z,19.70
2022-08-23T02:10:14.413Z,19.70
2022-08-23T02:12:42.002Z,19.80
2022-08-23T02:15:09.500Z,19.70
2022-08-23T02:17:37.114Z,19.70
2022-08-23T02:20:05.874Z,19.60
2022-08-23T02:22:33.642Z,19.50
2022-08-23T02:25:01.168Z,19.30
2022-08-23T02:27:28.240Z,19.20
2022-08-23T02:29:55.481Z,19.20
2022-08-23T02:32:23.204Z,19.20
2022-08-23T02:35:05.273Z,19.10
2022-08-23T02:37:33.745Z,19.00
2022-08-23T02:40:00.842Z,19.00
2022-08-23T02:42:27.963Z,19.00
2022-08-23T02:44:55.637Z,19.00
2022-08-23T02:47:23.818Z,18.90
2022-08-23T02:49:51.982Z,19.00
2022-08-23T02:52:19.043Z,18.90
2022-08-23T02:54:46.032Z,19.00
2022-08-23T02:57:13.364Z,19.00
2022-08-23T02:59:40.405Z,19.00
2022-08-23T03:02:07.434Z,19.00
2022-08-23T03:04:34.538Z,19.00
2022-08-23T03:07:01.676Z,19.00
2022-08-23T03:09:39.999Z,19.00
2022-08-23T03:12:07.840Z,18.90
2022-08-23T03:14:35.449Z,18.70
2022-08-23T03:17:07.291Z,18.60
2022-08-23T03:19:34.710Z,18.50
2022-08-23T03:22:01.994Z,18.50
2022-08-23T03:24:29.964Z,18.60
2022-08-23T03:26:56.976Z,18.70
2022-08-23T03:29:23.970Z,18.70
2022-08-23T03:31:51.903Z,18.70
2022-08-23T03:34:21.321Z,18.80
2022-08-23T03:36:48.342Z,18.80
2022-08-23T03:39:15.727Z,18.70
2022-08-23T03:41:42.872Z,18.70
2022-08-23T03:44:10.003Z,18.70
2022-08-23T03:46:37.550Z,18.60
2022-08-23T03:49:05.225Z,18.50
2022-08-23T03:51:34.549Z,18.50
2022-08-23T03:54:02.485Z,18.50
2022-08-23T03:56:32.393Z,18.50
2022-08-23T03:59:04.086Z,18.50
2022-08-23T04:01:31.153Z,18.30
2022-08-23T04:04:01.037Z,18.30
2022-08-23T04:06:29.077Z,18.30
2022-08-23T04:08:56.565Z,18.40
2022-08-23T04:11:25.769Z,18.30
2022-08-23T04:13:52.886Z,18.30
2022-08-23T04:16:20.364Z,18.20
2022-08-23T04:18:47.924Z,18.30
2022-08-23T04:21:22.633Z,18.30
2022-08-23T04:23:49.948Z,18.30
2022-08-23T04:26:17.130Z,18.30
2022-08-23T04:28:44.116Z,18.30
2022-08-23T04:31:11.364Z,18.30
2022-08-23T04:33:40.184Z,18.20
2022-08-23T04:36:08.038Z,18.20
2022-08-23T04:38:35.368Z,18.20
2022-08-23T04:41:21.835Z,18.20
2022-08-23T04:43:49.065Z,18.20
2022-08-23T04:46:16.792Z,18.20
2022-08-23T04:48:46.063Z,18.20
2022-08-23T04:51:13.712Z,18.30
2022-08-23T04:53:41.381Z,18.30
2022-08-23T04:56:09.377Z,18.30
2022-08-23T04:58:37.454Z,18.40
2022-08-23T05:01:16.342Z,18.40
2022-08-23T05:03:43.688Z,18.40
2022-08-23T05:06:11.005Z,18.40
2022-08-23T05:08:38.167Z,18.40
2022-08-23T05:11:07.693Z,18.40
2022-08-23T05:13:36.725Z,18.40
2022-08-23T05:16:05.208Z,18.40
2022-08-23T05:18:33.672Z,18.50
2022-08-23T05:21:01.326Z,18.60
2022-08-23T05:23:31.829Z,18.60
2022-08-23T05:26:01.069Z,18.70
2022-08-23T05:28:31.295Z,18.80
2022-08-23T05:31:03.661Z,18.80
2022-08-23T05:33:32.330Z,18.80
2022-08-23T05:36:00.331Z,18.80
2022-08-23T05:38:27.444Z,18.90
2022-08-23T05:40:59.900Z,18.90
2022-08-23T05:43:27.209Z,19.00
2022-08-23T05:46:12.808Z,19.10
2022-08-23T05:48:47.205Z,19.20
2022-08-23T05:51:19.037Z,19.20
2022-08-23T05:53:47.743Z,19.30
2022-08-23T05:56:17.771Z,19.40
2022-08-23T05:58:45.927Z,19.40
2022-08-23T06:01:15.095Z,19.40
2022-08-23T06:03:43.368Z,19.40
2022-08-23T06:06:11.491Z,19.50
2022-08-23T06:08:40.243Z,19.40
2022-08-23T06:11:11.000Z,19.40
2022-08-23T06:13:44.526Z,19.40
2022-08-23T06:16:15.031Z,19.40
2022-08-23T06:18:43.367Z,19.40
2022-08-23T06:21:12.602Z,19.40
2022-08-23T06:23:41.903Z,19.50
2022-08-23T06:26:16.427Z,19.60
2022-08-23T06:28:51.142Z,19.60
2022-08-23T06:31:38.155Z,19.60
2022-08-23T06:34:05.285Z,19.70
2022-08-23T06:36:32.428Z,19.70
2022-08-23T06:38:59.918Z,19.90
2022-08-23T06:41:27.344Z,20.00
2022-08-23T06:43:55.431Z,20.10
2022-08-23T06:46:29.380Z,20.30
2022-08-23T06:48:58.157Z,20.40
2022-08-23T06:51:29.410Z,20.50
2022-08-23T06:53:58.784Z,20.50
2022-08-23T06:56:30.555Z,20.70
2022-08-23T06:58:58.126Z,20.80
2022-08-23T07:01:47.623Z,21.00
2022-08-23T07:04:35.269Z,21.10
2022-08-23T07:07:03.311Z,21.20
2022-08-23T07:09:32.081Z,21.30
2022-08-23T07:12:01.023Z,21.50
2022-08-23T07:14:28.498Z,21.60
2022-08-23T07:17:01.399Z,21.80
2022-08-23T07:19:31.684Z,21.90
2022-08-23T07:22:00.571Z,21.90
2022-08-23T07:24:33.034Z,22.00
2022-08-23T07:27:01.632Z,22.10
2022-08-23T07:29:30.227Z,22.20
2022-08-23T07:31:58.092Z,22.40
2022-08-23T07:34:26.399Z,22.40
2022-08-23T07:36:54.368Z,22.50
2022-08-23T07:39:22.923Z,22.70
2022-08-23T07:41:52.895Z,22.80
2022-08-23T07:44:20.297Z,22.90
2022-08-23T07:46:50.650Z,23.00
2022-08-23T07:49:18.462Z,23.10
2022-08-23T07:51:49.139Z,23.20
2022-08-23T07:54:16.970Z,23.40
2022-08-23T07:56:44.524Z,23.50
2022-08-23T07:59:12.003Z,23.60
2022-08-23T08:01:41.467Z,23.70
2022-08-23T08:04:08.572Z,23.80
2022-08-23T08:06:41.370Z,23.90
2022-08-23T08:09:10.671Z,24.00
2022-08-23T08:11:38.055Z,24.10
2022-08-23T08:14:07.872Z,24.30
2022-08-23T08:16:44.424Z,24.40
2022-08-23T08:19:13.542Z,24.50
2022-08-23T08:21:41.978Z,24.70
2022-08-23T08:24:13.102Z,24.80
2022-08-23T08:26:42.052Z,25.00
2022-08-23T08:29:12.148Z,25.10
2022-08-23T08:31:41.115Z,25.10
2022-08-23T08:34:08.957Z,25.10
2022-08-23T08:36:41.460Z,25.20
2022-08-23T08:39:12.164Z,25.40
2022-08-23T08:41:48.917Z,25.40
2022-08-23T08:44:26.059Z,25.60
2022-08-23T08:46:57.363Z,25.70
2022-08-23T08:49:45.441Z,25.80
2022-08-23T08:52:23.541Z,25.90
2022-08-23T08:54:56.175Z,26.00
2022-08-23T08:57:27.643Z,26.10
2022-08-23T09:00:25.494Z,26.20
2022-08-23T09:02:52.882Z,26.30
2022-08-23T09:05:27.372Z,26.40
2022-08-23T09:08:32.040Z,26.50
2022-08-23T09:11:06.500Z,26.60
2022-08-23T09:13:36.724Z,26.70
2022-08-23T09:16:35.924Z,26.80
2022-08-23T09:19:04.134Z,26.90
2022-08-23T09:21:44.732Z,27.00
2022-08-23T09:24:11.819Z,27.10
2022-08-23T09:26:39.200Z,27.10
2022-08-23T09:29:23.963Z,27.20
2022-08-23T09:31:54.189Z,27.30
2022-08-23T09:34:42.416Z,27.40
2022-08-23T09:37:18.512Z,27.50
2022-08-23T09:39:53.892Z,27.60
2022-08-23T09:42:39.603Z,27.70
2022-08-23T09:45:26.534Z,27.70
2022-08-23T09:47:55.249Z,27.80
2022-08-23T09:50:36.585Z,27.80
2022-08-23T09:53:09.006Z,27.90
2022-08-23T09:55:47.687Z,28.00
2022-08-23T09:58:36.420Z,28.10
2022-08-23T10:01:14.484Z,28.20
2022-08-23T10:03:42.864Z,28.20
2022-08-23T10:06:12.569Z,28.30
2022-08-23T10:08:53.485Z,28.40
2022-08-23T10:11:30.477Z,28.50
2022-08-23T10:13:58.133Z,28.50
2022-08-23T10:16:41.538Z,28.60
2022-08-23T10:19:47.808Z,28.70
2022-08-23T10:22:22.900Z,28.80
2022-08-23T10:25:06.098Z,28.80
2022-08-23T10:28:36.887Z,28.90
2022-08-23T10:31:31.408Z,29.10
2022-08-23T10:34:10.399Z,29.20
2022-08-23T10:36:58.564Z,29.30
2022-08-23T10:39:30.464Z,29.20
2022-08-23T10:42:13.965Z,29.20
2022-08-23T10:45:04.256Z,29.00
2022-08-23T10:47:48.069Z,28.90
2022-08-23T10:50:20.186Z,28.80
2022-08-23T10:52:56.969Z,28.70
2022-08-23T10:55:55.021Z,28.60
2022-08-23T10:58:26.279Z,28.70
2022-08-23T11:00:57.937Z,28.80
2022-08-23T11:03:48.034Z,29.00
2022-08-23T11:06:30.415Z,29.00
2022-08-23T11:09:30.704Z,29.00
2022-08-23T11:12:05.634Z,29.00
2022-08-23T11:14:38.777Z,28.90
2022-08-23T11:17:09.320Z,28.90
2022-08-23T11:19:56.228Z,29.00
2022-08-23T11:22:58.156Z,29.10
2022-08-23T11:25:25.076Z,29.10
2022-08-23T11:28:23.994Z,29.20
2022-08-23T11:30:58.275Z,29.50
2022-08-23T11:33:46.792Z,29.40
2022-08-23T11:36:24.819Z,29.30
2022-08-23T11:38:51.813Z,29.10
2022-08-23T11:41:26.018Z,29.20
2022-08-23T11:43:56.073Z,29.20
2022-08-23T11:46:26.231Z,29.30
2022-08-23T11:49:17.202Z,29.30
2022-08-23T11:52:11.302Z,29.30
2022-08-23T11:55:08.480Z,29.40
2022-08-23T11:58:16.830Z,29.50
2022-08-23T12:01:08.757Z,29.60
2022-08-23T12:03:57.080Z,29.70
2022-08-23T12:06:50.881Z,29.70
2022-08-23T12:09:21.240Z,29.70
2022-08-23T12:11:57.324Z,29.90
2022-08-23T12:14:45.573Z,30.00
2022-08-23T12:17:12.492Z,30.00
2022-08-23T12:19:43.881Z,30.20
2022-08-23T12:22:20.025Z,30.30
2022-08-23T12:24:53.867Z,30.60
2022-08-23T12:27:23.564Z,30.70
2022-08-23T12:29:53.631Z,31.00
2022-08-23T12:32:54.561Z,31.10
2022-08-23T12:35:44.645Z,31.30
2022-08-23T12:38:41.873Z,31.50
2022-08-23T12:41:56.348Z,31.60
2022-08-23T12:44:26.199Z,31.70
2022-08-23T12:46:53.420Z,31.70
2022-08-23T12:49:27.528Z,31.70
2022-08-23T12:51:57.923Z,31.80
2022-08-23T12:54:39.312Z,32.00
2022-08-23T12:57:12.041Z,32.00
2022-08-23T12:59:48.063Z,31.90
2022-08-23T13:02:23.089Z,32.00
2022-08-23T13:04:50.773Z,31.90
2022-08-23T13:07:23.244Z,31.70
2022-08-23T13:09:53.357Z,31.60
2022-08-23T13:12:22.736Z,31.50
2022-08-23T13:14:52.381Z,31.50
2022-08-23T13:17:25.711Z,31.60
2022-08-23T13:20:23.863Z,31.80
2022-08-23T13:23:03.604Z,32.00
2022-08-23T13:25:41.943Z,32.10
2022-08-23T13:28:28.384Z,32.10
2022-08-23T13:31:10.616Z,32.10
2022-08-23T13:33:41.011Z,32.10
2022-08-23T13:36:14.881Z,32.30
2022-08-23T13:38:43.692Z,32.50
2022-08-23T13:41:26.615Z,32.50
2022-08-23T13:43:55.094Z,32.50
2022-08-23T13:46:28.515Z,32.40
2022-08-23T13:49:13.662Z,32.30
2022-08-23T13:51:43.633Z,32.30
2022-08-23T13:54:13.628Z,32.50
2022-08-23T13:56:48.741Z,32.40
2022-08-23T13:59:31.307Z,32.30
2022-08-23T14:02:09.087Z,32.10
2022-08-23T14:04:36.251Z,32.20
2022-08-23T14:07:03.535Z,32.30
2022-08-23T14:09:30.525Z,32.40
2022-08-23T14:11:59.789Z,32.70
2022-08-23T14:14:31.438Z,32.90
2022-08-23T14:17:10.685Z,33.10
2022-08-23T14:22:29.888Z,33.30
2022-08-23T14:24:56.840Z,33.20
2022-08-23T14:27:23.880Z,33.00
2022-08-23T14:29:50.871Z,33.00
2022-08-23T14:32:17.883Z,32.90
2022-08-23T14:34:44.821Z,32.80
2022-08-23T14:39:59.004Z,32.70
2022-08-23T14:42:26.079Z,32.70
2022-08-23T14:44:53.098Z,32.80
2022-08-23T14:47:20.132Z,33.00
2022-08-23T14:49:49.877Z,33.30
2022-08-23T14:52:19.503Z,33.50
2022-08-23T14:54:46.466Z,33.60
2022-08-23T14:57:13.445Z,33.70
2022-08-23T14:59:40.387Z,33.80
2022-08-23T15:02:11.828Z,33.80
2022-08-23T15:04:39.740Z,33.80
2022-08-23T15:07:17.611Z,34.00
2022-08-23T15:09:46.998Z,34.10
2022-08-23T15:15:00.928Z,34.30
2022-08-23T15:17:31.504Z,34.20
2022-08-23T15:19:59.489Z,34.10
2022-08-23T15:22:26.562Z,34.00
2022-08-23T15:24:53.712Z,33.90
2022-08-23T15:27:22.958Z,33.70
2022-08-23T15:29:50.167Z,33.70
2022-08-23T15:32:22.741Z,33.70
2022-08-23T15:34:50.908Z,33.70
2022-08-23T15:37:20.216Z,33.80
2022-08-23T15:39:47.517Z,33.80
2022-08-23T15:42:20.192Z,33.90
2022-08-23T15:44:48.219Z,33.90
2022-08-23T15:47:22.535Z,33.90
2022-08-23T15:49:50.007Z,33.90
2022-08-23T15:52:17.548Z,33.80
2022-08-23T15:54:44.710Z,33.80
2022-08-23T15:57:18.342Z,33.80
2022-08-23T15:59:45.755Z,33.80
2022-08-23T16:02:12.815Z,33.70
2022-08-23T16:04:40.069Z,33.60
2022-08-23T16:07:08.516Z,33.50
2022-08-23T16:09:36.860Z,33.50
2022-08-23T16:12:05.206Z,33.50
2022-08-23T16:14:32.709Z,33.50
2022-08-23T16:17:00.467Z,33.50
2022-08-23T16:19:28.680Z,33.40
2022-08-23T16:21:56.381Z,33.50
2022-08-23T16:24:25.015Z,33.40
2022-08-23T16:26:52.381Z,33.30
2022-08-23T16:29:20.906Z,33.20
2022-08-23T16:31:48.629Z,33.20
2022-08-23T16:34:18.580Z,33.20
2022-08-23T16:36:49.610Z,33.20
2022-08-23T16:39:17.348Z,33.20
2022-08-23T16:41:44.639Z,33.20
2022-08-23T16:44:11.888Z,33.20
2022-08-23T16:46:42.772Z,33.20
2022-08-23T16:49:14.654Z,33.20
2022-08-23T16:51:42.500Z,33.10
2022-08-23T16:54:09.798Z,33.10
2022-08-23T16:56:38.770Z,33.10
2022-08-23T16:59:08.122Z,33.00
2022-08-23T17:02:11.023Z,33.00
2022-08-23T17:04:38.391Z,32.90
2022-08-23T17:07:06.533Z,32.80
2022-08-23T17:09:42.324Z,32.80
2022-08-23T17:12:09.481Z,32.70
2022-08-23T17:14:37.051Z,32.70
2022-08-23T17:17:04.334Z,32.70
2022-08-23T17:19:31.371Z,32.60
2022-08-23T17:22:01.149Z,32.50
2022-08-23T17:24:28.155Z,32.50
2022-08-23T17:26:55.243Z,32.50
2022-08-23T17:29:37.306Z,32.40
2022-08-23T17:32:05.242Z,32.30
2022-08-23T17:34:32.459Z,32.20
2022-08-23T17:37:00.032Z,32.10
2022-08-23T17:39:29.547Z,32.10
2022-08-23T17:41:58.091Z,32.10
2022-08-23T17:44:25.259Z,32.00
2022-08-23T17:46:52.705Z,32.00
2022-08-23T17:49:20.395Z,31.90
2022-08-23T17:51:48.510Z,31.80
2022-08-23T17:54:15.912Z,31.80
2022-08-23T17:56:50.346Z,31.70
2022-08-23T17:59:21.722Z,31.60
2022-08-23T18:01:48.756Z,31.40
2022-08-23T18:04:15.821Z,31.20
2022-08-23T18:06:43.154Z,31.10
2022-08-23T18:09:10.452Z,31.00
2022-08-23T18:11:37.853Z,30.80
2022-08-23T18:14:05.570Z,30.60
2022-08-23T18:16:35.587Z,30.40
2022-08-23T18:19:05.115Z,30.30
2022-08-23T18:21:33.447Z,30.10
2022-08-23T18:24:00.419Z,30.00
2022-08-23T18:26:46.411Z,29.90
2022-08-23T18:29:14.623Z,29.80
2022-08-23T18:31:43.285Z,29.60
2022-08-23T18:34:12.234Z,29.50
2022-08-23T18:36:39.539Z,29.50
2022-08-23T18:39:08.655Z,29.30
2022-08-23T18:41:36.087Z,29.10
2022-08-23T18:44:05.436Z,29.00
2022-08-23T18:46:39.187Z,28.90
2022-08-23T18:49:08.045Z,28.80
2022-08-23T18:51:35.125Z,28.60
2022-08-23T18:54:02.301Z,28.50
2022-08-23T18:56:29.289Z,28.30
2022-08-23T18:58:56.313Z,28.20
2022-08-23T19:01:36.852Z,28.10
2022-08-23T19:04:07.288Z,28.00
2022-08-23T19:06:34.617Z,27.90
2022-08-23T19:09:01.675Z,27.90
2022-08-23T19:11:30.069Z,27.70
2022-08-23T19:13:58.617Z,27.60
2022-08-23T19:16:26.981Z,27.50
2022-08-23T19:18:55.275Z,27.40
2022-08-23T19:21:25.919Z,27.30
2022-08-23T19:23:55.641Z,27.20
2022-08-23T19:26:26.390Z,27.10
2022-08-23T19:28:53.609Z,27.00
2022-08-23T19:31:20.655Z,26.90
2022-08-23T19:33:47.726Z,26.80
2022-08-23T19:36:35.784Z,26.70
2022-08-23T19:39:01.938Z,26.60
2022-08-23T19:41:29.660Z,26.40
2022-08-23T19:43:57.682Z,26.40
2022-08-23T19:46:24.657Z,26.40
2022-08-23T19:48:51.655Z,26.30
2022-08-23T19:51:20.581Z,26.30
2022-08-23T19:54:04.674Z,26.20
2022-08-23T19:56:39.354Z,26.20
2022-08-23T19:59:09.431Z,26.20
2022-08-23T20:01:36.916Z,26.10
2022-08-23T20:04:05.018Z,26.10
2022-08-23T20:06:32.361Z,26.00
2022-08-23T20:08:59.579Z,26.00
2022-08-23T20:11:28.066Z,26.00
2022-08-23T20:13:56.755Z,26.00
2022-08-23T20:16:26.958Z,25.90
2022-08-23T20:18:56.428Z,25.80
2022-08-23T20:21:24.483Z,25.80
2022-08-23T20:24:01.575Z,25.70
2022-08-23T20:26:30.669Z,25.70
2022-08-23T20:29:00.258Z,25.60
2022-08-23T20:31:35.833Z,25.60
2022-08-23T20:34:04.780Z,25.50
2022-08-23T20:36:33.778Z,25.50
2022-08-23T20:39:01.982Z,25.40
2022-08-23T20:41:32.001Z,25.40
2022-08-23T20:44:02.333Z,25.40
2022-08-23T20:46:29.802Z,25.40
2022-08-23T20:48:59.858Z,25.40
2022-08-23T20:51:28.654Z,25.30
2022-08-23T20:53:56.797Z,25.20
2022-08-23T20:56:25.285Z,25.20
2022-08-23T20:58:52.467Z,25.10
2022-08-23T21:01:19.875Z,25.10
2022-08-23T21:03:47.829Z,25.00
2022-08-23T21:06:20.090Z,25.10
2022-08-23T21:08:53.562Z,25.00
2022-08-23T21:11:22.946Z,25.00
2022-08-23T21:13:50.097Z,24.90
2022-08-23T21:16:17.644Z,24.80
2022-08-23T21:18:45.360Z,24.80
2022-08-23T21:21:12.721Z,24.80
2022-08-23T21:23:40.062Z,24.80
2022-08-23T21:26:08.223Z,24.70
2022-08-23T21:28:36.575Z,24.70
2022-08-23T21:31:09.900Z,24.70
2022-08-23T21:33:40.222Z,24.60
2022-08-23T21:36:11.360Z,24.60
2022-08-23T21:38:39.089Z,24.60
2022-08-23T21:41:11.497Z,24.50
2022-08-23T21:43:39.137Z,24.40
2022-08-23T21:46:07.519Z,24.40
2022-08-23T21:48:34.733Z,24.40
2022-08-23T21:51:02.102Z,24.40
2022-08-23T21:53:29.262Z,24.30
2022-08-23T21:55:56.624Z,24.30
2022-08-23T21:58:23.627Z,24.20
2022-08-23T22:00:51.338Z,24.00
2022-08-23T22:03:18.818Z,24.00
2022-08-23T22:05:47.066Z,24.00
2022-08-23T22:08:17.123Z,24.00
2022-08-23T22:10:57.851Z,24.00
2022-08-23T22:13:27.142Z,23.90
2022-08-23T22:15:54.885Z,23.90
2022-08-23T22:18:22.018Z,23.80
2022-08-23T22:20:49.025Z,23.80
2022-08-23T22:23:16.109Z,23.80
2022-08-23T22:25:43.172Z,23.80
2022-08-23T22:28:10.345Z,23.80
2022-08-23T22:30:37.327Z,23.80
2022-08-23T22:33:04.779Z,23.70
2022-08-23T22:35:35.344Z,23.60
2022-08-23T22:38:13.662Z,23.60
2022-08-23T22:40:48.665Z,23.60
2022-08-23T22:43:17.573Z,23.50
2022-08-23T22:45:57.012Z,23.40
2022-08-23T22:48:25.487Z,23.40
2022-08-23T22:51:06.504Z,23.30
2022-08-23T22:53:35.195Z,23.30
2022-08-23T22:56:02.693Z,23.30
2022-08-23T22:58:29.795Z,23.30
2022-08-23T23:00:58.000Z,23.30
2022-08-23T23:03:25.298Z,23.30
2022-08-23T23:05:52.725Z,23.20
2022-08-23T23:08:28.633Z,23.20
2022-08-23T23:11:00.062Z,23.10
2022-08-23T23:13:29.645Z,23.10
2022-08-23T23:15:57.807Z,23.00
2022-08-23T23:18:26.491Z,23.00
2022-08-23T23:20:58.617Z,23.00
2022-08-23T23:23:26.711Z,23.00
2022-08-23T23:25:54.349Z,23.00
2022-08-23T23:28:22.068Z,22.90
2022-08-23T23:30:51.741Z,22.90
2022-08-23T23:33:20.814Z,22.90
2022-08-23T23:35:48.885Z,22.80
2022-08-23T23:38:16.907Z,22.70
2022-08-23T23:40:44.593Z,22.60
2022-08-23T23:43:13.190Z,22.60
2022-08-23T23:45:41.052Z,22.60
2022-08-23T23:48:08.897Z,22.50
2022-08-23T23:50:37.143Z,22.50
2022-08-23T23:53:08.864Z,22.50
2022-08-23T23:55:35.951Z,22.50
2022-08-23T23:58:03.150Z,22.50
